This is the latest recevied weather packets stored in our database for station/object EA7JCM-13. If no packets are shown the sender has not sent any weather packets the latest 10 day(s).
| Time | Temp. | Humidity | Pressure | Rain* | Wind** | Luminosity | Snow |
|---|---|---|---|---|---|---|---|
| 1777390503 | 17.22° C | 87% | 1006 hPa | 7.11 mm | - | - | - |
| 1777390203 | 17.22° C | 86% | 1006 hPa | 7.11 mm | - | - | - |
| 1777389903 | 17.22° C | 85% | 1006 hPa | 7.11 mm | - | - | - |
| 1777389603 | 16.67° C | 85% | 1006.4 hPa | 7.11 mm | - | - | - |
| 1777389303 | 17.22° C | 85% | 1006.1 hPa | 7.11 mm | - | - | - |
| 1777389004 | 17.22° C | 83% | 1006.1 hPa | 7.11 mm | - | - | - |
| 1777388704 | 17.22° C | 82% | 1006.1 hPa | 6.86 mm | - | - | - |
| 1777388404 | 16.67° C | 83% | 1006.3 hPa | 6.35 mm | - | - | - |
| 1777388103 | 16.67° C | 79% | 1006.6 hPa | 3.3 mm | - | - | - |
| 1777387803 | 19.44° C | 72% | 1006.4 hPa | 0 mm | - | - | - |
| 1777387503 | 21.11° C | 64% | 1006.2 hPa | 0 mm | - | - | - |
| 1777387203 | 21.67° C | 60% | 1006.3 hPa | 0 mm | - | - | - |
| 1777386903 | 22.78° C | 51% | 1005.9 hPa | 0 mm | - | - | - |
| 1777386603 | 23.89° C | 49% | 1006.1 hPa | 0 mm | - | - | - |
| 1777386303 | 23.89° C | 51% | 1006.2 hPa | 0 mm | - | - | - |
| 1777386003 | 23.89° C | 51% | 1005.9 hPa | 0 mm | - | - | - |
| 1777385703 | 22.78° C | 52% | 1006.2 hPa | 0 mm | - | - | - |
| 1777385403 | 22.78° C | 59% | 1006.2 hPa | 0 mm | - | - | - |
| 1777385103 | 22.78° C | 58% | 1006.4 hPa | 0 mm | - | - | - |
| 1777384803 | 22.22° C | 61% | 1006.4 hPa | 0 mm | - | - | - |
| 1777384503 | 22.22° C | 61% | 1006.5 hPa | 0 mm | - | - | - |
| 1777384203 | 22.22° C | 63% | 1006.5 hPa | 0 mm | - | - | - |
| 1777383903 | 22.22° C | 65% | 1006.7 hPa | 0 mm | - | - | - |
| 1777383603 | 22.22° C | 59% | 1006.5 hPa | 0 mm | - | - | - |
| 1777383303 | 22.78° C | 58% | 1006.9 hPa | 0 mm | - | - | - |
* Rain latest hour (hover to see other rain measurements)
** Current wind speed in m/s (hover to see current wind gust speed)